Latest Coastal Weather Observations for Smithton

IDV60701

Issued at 6:52 pm EDT Saturday 10 December 2022 (issued every 10 minutes, with the page automatically refreshed every 10 minutes)

About coastal observations | Map of coastal stations | Coastal observations for VIC | Marine services | Other Formats
Station Details ID: 091292 Name: SMITHTON AERODROME Lat: -40.83 Lon: 145.08 Height: 7.5 m
Data from the previous 72 hours. | See also: Recent months at Smithton
Date/Time
EDT
Wind Sea
Height
m
Swell Vis
km
Cloud Weather Temp
°C
Press
MSL
hPa
Rain since
9am
mm
Dir  Spd
kts
Gust
kts
Height
m
Period
s
Dir
10/06:30pm NE 11 15 - - - - - - - 17.0 1013.3 0.0
10/06:00pm NE 12 16 - - - - - - - 17.2 1013.4 0.0
10/05:30pm NE 13 16 - - - - - - - 17.1 1013.8 0.0
10/05:00pm NE 12 16 - - - - - - - 17.5 1014.2 0.0
10/04:30pm NE 12 18 - - - - - - - 17.8 1014.7 0.0
10/04:00pm NE 11 14 - - - - - - - 18.5 1014.9 0.0
10/03:30pm NE 12 16 - - - - - - - 18.2 1015.0 0.0
10/03:00pm NE 11 16 - - - - - - - 18.4 1015.2 0.0
10/02:30pm NNE 10 14 - - - - - - - 18.3 1015.6 0.0
10/02:00pm NNE 10 13 - - - - - - - 17.7 1015.9 0.0
10/01:30pm NNE 10 15 - - - - - - - 17.8 1015.9 0.0
10/01:00pm NNE 10 14 - - - - - - - 18.0 1015.9 0.0
10/12:30pm NNE 9 13 - - - - - - - 18.4 1016.4 0.0
10/12:00pm NNE 11 13 - - - - - - - 17.5 1016.5 0.0
10/11:30am NE 13 18 - - - - - - - 17.1 1016.7 0.0
10/11:00am ENE 13 17 - - - - - - - 17.2 1016.8 0.0
10/10:30am ENE 12 16 - - - - - - - 16.6 1017.0 0.0
10/10:00am ENE 13 17 - - - - - - - 16.8 1017.2 0.0
10/09:30am ENE 13 17 - - - - - - - 16.7 1017.2 0.0
10/09:00am ENE 13 16 - - - - - - - 15.8 1017.2 0.0
10/08:30am ENE 12 17 - - - - - - - 15.3 1017.1 0.0
10/08:00am ENE 10 15 - - - - - - - 15.2 1016.9 0.0
10/07:30am SSW 1 5 - - - - - - - 11.8 1016.7 0.0
10/07:00am SSW 2 4 - - - - - - - 9.0 1016.6 0.0
10/06:30am S 5 5 - - - - - - - 7.5 1016.5 0.0
10/06:00am S 5 6 - - - - - - - 5.8 1016.4 0.0
10/05:30am S 5 6 - - - - - - - 5.6 1016.3 0.0
10/05:00am S 5 6 - - - - - - - 5.8 1016.2 0.0
10/04:30am S 4 5 - - - - - - - 6.5 1016.4 0.0
10/04:00am S 6 7 - - - - - - - 6.5 1016.6 0.0
10/03:30am SSW 6 7 - - - - - - - 6.5 1016.7 0.0
10/03:00am S 7 7 - - - - - - - 6.6 1016.8 0.0
10/02:30am S 7 8 - - - - - - - 7.2 1016.9 0.0
10/02:00am SSW 7 8 - - - - - - - 7.4 1017.1 0.0
10/01:30am SSW 6 9 - - - - - - - 7.9 1017.3 0.0
10/01:00am SSW 7 8 - - - - - - - 7.7 1017.3 0.0
10/12:30am SSW 7 8 - - - - - - - 8.5 1017.3 0.0
10/12:00am SSW 9 10 - - - - - - - 9.0 1017.3 0.0
 
Date/Time
EDT
Wind Sea
Height
m
Swell Vis
km
Cloud Weather Temp
°C
Press
MSL
hPa
Rain since
9am
mm
Dir  Spd
kts
Gust
kts
Height
m
Period
s
Dir
09/11:30pm SSW 9 11 - - - - - - - 8.9 1017.4 0.0
09/11:00pm SSW 9 11 - - - - - - - 9.3 1017.6 0.0
09/10:30pm SSW 10 12 - - - - - - - 9.9 1017.7 0.0
09/10:00pm SSW 9 11 - - - - - - - 10.1 1017.5 0.0
09/09:30pm SW 10 12 - - - - - - - 11.0 1017.4 0.0
09/09:00pm SW 9 12 - - - - - - - 11.5 1017.3 0.0
09/08:30pm SW 11 15 - - - - - - - 12.5 1017.2 0.0
09/08:00pm SSW 11 15 - - - - - - - 13.3 1017.0 0.0
09/07:30pm SSW 13 17 - - - - - - - 15.0 1016.8 0.0
09/07:00pm SW 16 20 - - - - - - - 15.8 1016.7 0.0
09/06:30pm SW 15 20 - - - - - - - 16.6 1016.4 0.0
09/06:00pm SW 14 18 - - - - - - - 17.6 1016.3 0.0
09/05:30pm SW 15 19 - - - - - - - 18.3 1016.2 0.0
09/05:00pm SSW 12 17 - - - - - - - 18.6 1016.4 0.0
09/04:30pm SW 12 17 - - - - - - - 18.3 1016.6 0.0
09/04:00pm WSW 12 15 - - - - - - - 18.4 1016.9 0.0
09/03:38pm SW 11 19 - - - - - - - 17.7 1017.1 0.0
09/03:30pm SW 9 16 - - - - - - - 17.9 1017.1 0.0
09/03:00pm SW 14 20 - - - - - - - 18.5 1017.2 0.0
09/02:30pm SW 14 18 - - - - - - - 17.1 1017.4 0.0
09/02:00pm SSW 13 19 - - - - - - - 17.6 1017.5 0.0
09/01:30pm SW 14 19 - - - - - - - 17.4 1017.6 0.0
09/01:00pm SSW 11 17 - - - - - - - 16.7 1017.8 0.0
09/12:30pm S 12 18 - - - - - - - 15.8 1018.1 0.0
09/12:00pm SSW 14 21 - - - - - - - 15.3 1018.3 0.0
09/11:30am SW 16 21 - - - - - - - 15.7 1018.2 0.0
09/11:00am SSW 13 18 - - - - - - - 15.4 1018.3 0.0
09/10:30am SSW 12 15 - - - - - - - 15.2 1018.2 0.0
09/10:00am SSW 10 15 - - - - - - - 15.1 1018.2 0.0
09/09:30am S 8 13 - - - - - - - 13.7 1018.5 0.0
09/09:00am SSW 8 12 - - - - - - - 12.5 1018.4 0.0
09/08:30am S 6 8 - - - - - - - 11.2 1018.3 0.0
09/08:00am SSW 7 8 - - - - - - - 9.9 1018.0 0.0
09/07:30am SSW 4 6 - - - - - - - 8.3 1017.7 0.0
09/07:00am SSW 5 6 - - - - - - - 6.5 1017.6 0.0
09/06:30am SW 7 9 - - - - - - - 5.1 1017.0 0.0
09/06:00am SSW 9 9 - - - - - - - 2.4 1016.9 0.0
09/05:30am SSW 6 7 - - - - - - - 2.0 1017.1 0.0
09/05:00am S 6 6 - - - - - - - 3.1 1016.8 0.0
09/04:30am S 5 6 - - - - - - - 2.6 1016.8 0.0
09/04:00am SSW 4 5 - - - - - - - 3.0 1017.0 0.0
09/03:30am S 3 4 - - - - - - - 3.9 1016.8 0.0
09/03:00am NE 1 3 - - - - - - - 3.9 1016.9 0.0
09/02:30am NNE 4 5 - - - - - - - 3.5 1016.8 0.0
09/02:00am SW 3 4 - - - - - - - 4.5 1016.7 0.0
09/01:30am S 4 6 - - - - - - - 5.1 1016.9 0.0
09/01:00am CALM 0 0 - - - - - - - 4.0 1016.7 0.0
09/12:30am WNW 3 3 - - - - - - - 3.9 1016.6 0.0
09/12:00am CALM 0 1 - - - - - - - 4.5 1016.7 0.0
 
Date/Time
EDT
Wind Sea
Height
m
Swell Vis
km
Cloud Weather Temp
°C
Press
MSL
hPa
Rain since
9am
mm
Dir  Spd
kts
Gust
kts
Height
m
Period
s
Dir
08/11:30pm CALM 0 3 - - - - - - - 4.0 1016.4 0.0
08/11:00pm SSW 4 5 - - - - - - - 5.5 1016.2 0.0
08/10:30pm S 6 8 - - - - - - - 6.6 1016.4 0.0
08/10:00pm SSW 8 11 - - - - - - - 7.5 1016.0 0.0
08/09:30pm SSW 11 16 - - - - - - - 8.3 1015.5 0.0
08/09:00pm SSW 15 21 - - - - - - - 9.1 1015.3 0.0
08/08:30pm SSW 16 22 - - - - - - - 9.9 1015.0 0.0
08/08:00pm SSW 17 24 - - - - - - - 10.9 1014.5 0.0
08/07:32pm SSW 15 26 - - - - - - - 11.5 1014.2 0.0
08/07:30pm SW 15 22 - - - - - - - 11.5 1014.1 0.0
08/07:00pm SSW 18 25 - - - - - - - 12.0 1013.6 0.0
08/06:30pm SSW 19 26 - - - - - - - 11.5 1013.3 0.0
08/06:00pm SSW 19 26 - - - - - - - 12.9 1013.0 0.0
08/05:30pm SSW 23 29 - - - - - - - 13.5 1012.8 0.0
08/05:00pm SSW 19 26 - - - - - - - 13.4 1012.8 0.0
08/04:33pm SW 19 30 - - - - - - - 14.4 1012.4 0.0
08/04:30pm SW 20 26 - - - - - - - 15.3 1012.3 0.0
08/04:00pm SSW 24 31 - - - - - - - 14.5 1011.9 0.0
08/03:30pm SW 25 33 - - - - - - - 14.5 1011.9 0.0
08/03:14pm SSW 21 32 - - - - - - - 14.2 1011.9 0.0
08/03:00pm SSW 25 34 - - - - - - - 12.6 1012.0 0.0
08/02:55pm SSW 24 34 - - - - - - - 14.0 1011.7 0.0
08/02:30pm SSW 24 32 - - - - - - - 14.6 1011.6 0.0
08/02:00pm SW 25 34 - - - - - - - 15.2 1011.4 0.0
08/01:30pm SW 24 35 - - - - - - - 15.0 1011.2 0.0
08/01:07pm SSW 23 35 - - - - - - - 14.1 1011.0 0.0
08/01:00pm SSW 22 30 - - - - - - - 15.3 1011.0 0.0
08/12:30pm SSW 24 34 - - - - - - - 14.1 1010.9 0.0
08/12:06pm SSW 25 35 - - - - - - - 15.1 1010.7 0.0
08/12:00pm SW 27 35 - - - - - - - 14.2 1010.7 0.0
08/11:30am SSW 25 37 - - - - - - - 14.4 1010.7 0.0
08/11:03am SSW 23 34 - - - - - - - 12.3 1010.6 0.0
08/11:00am SSW 23 30 - - - - - - - 13.1 1010.6 0.0
08/10:30am SSW 22 32 - - - - - - - 13.6 1010.6 0.0
08/10:00am SSW 22 32 - - - - - - - 12.2 1010.2 0.0
08/09:47am SSW 22 34 - - - - - - - 13.0 1010.1 0.0
08/09:30am SSW 23 32 - - - - - - - 12.7 1009.9 0.0
08/09:00am SSW 19 33 - - - - - - - 12.1 1009.6 1.8
08/08:51am SSW 19 33 - - - - - - - 11.6 1009.6 1.8
08/08:30am SSW 20 29 - - - - - - - 11.0 1009.4 1.8
08/08:00am SW 17 28 - - - - - - - 9.6 1008.9 1.8
08/07:59am SW 16 27 - - - - - - - 9.8 1008.9 1.8
08/07:30am SSW 15 20 - - - - - - - 9.8 1008.3 1.8
08/07:00am SW 16 25 - - - - - - - 9.4 1008.0 1.8
08/06:44am SW 15 25 - - - - - - - 9.0 1007.5 1.8
08/06:30am SW 13 16 - - - - - - - 8.3 1007.5 1.8
08/06:00am SW 17 22 - - - - - - - 8.2 1006.9 1.8
08/05:30am SW 18 25 - - - - - - - 8.2 1006.4 1.8
08/05:00am SW 17 24 - - - - - - - 8.3 1006.2 1.8
08/04:30am SW 16 25 - - - - - - - 7.6 1005.7 1.8
08/04:05am SSW 16 27 - - - - - - - 7.8 1005.9 1.8
08/04:00am SW 14 19 - - - - - - - 8.0 1005.6 1.6
08/03:30am SW 18 25 - - - - - - - 7.8 1005.3 1.6
08/03:00am SW 17 27 - - - - - - - 8.3 1005.3 1.6
08/02:30am SW 17 23 - - - - - - - 8.4 1005.1 1.6
08/02:00am SW 18 24 - - - - - - - 8.6 1005.1 1.6
08/01:30am SW 15 20 - - - - - - - 8.5 1005.0 1.6
08/01:00am SW 18 26 - - - - - - - 8.6 1005.0 1.6
08/12:48am SW 17 27 - - - - - - - 8.6 1005.0 1.6
08/12:30am SW 18 27 - - - - - - - 8.6 1004.9 1.6
08/12:05am SW 17 27 - - - - - - - 9.1 1004.7 1.6
08/12:00am SW 17 24 - - - - - - - 8.9 1004.6 1.6
 
Date/Time
EDT
Wind Sea
Height
m
Swell Vis
km
Cloud Weather Temp
°C
Press
MSL
hPa
Rain since
9am
mm
Dir  Spd
kts
Gust
kts
Height
m
Period
s
Dir
07/11:30pm SW 15 19 - - - - - - - 8.8 1004.4 1.6
07/11:18pm SW 16 26 - - - - - - - 9.0 1004.2 1.6
07/11:00pm SW 15 22 - - - - - - - 8.8 1004.0 1.6
07/10:46pm SW 15 26 - - - - - - - 9.0 1003.9 1.6
07/10:30pm SW 11 14 - - - - - - - 8.7 1004.1 1.6
07/10:00pm SW 12 16 - - - - - - - 8.4 1003.5 1.6
07/09:30pm SW 18 30 - - - - - - - 8.8 1003.0 1.6
07/09:24pm SW 20 30 - - - - - - - 8.9 1002.9 1.6
07/09:00pm SW 25 34 - - - - - - Recent precip. 8.9 1002.7 1.6
07/08:30pm SW 22 32 - - - - - - - 9.8 1001.9 1.6
07/08:29pm SW 22 32 - - - - - - - 9.8 1001.9 1.6
07/08:19pm SW 21 30 - - - - - - - 9.9 1001.8 1.6
07/08:00pm SW 13 19 - - - - - - - 10.3 1001.5 1.4
07/07:30pm SW 14 19 - - - - - - - 11.3 1001.0 1.0
07/07:00pm SW 16 22 - - - - - - - 11.4 1001.0 1.0

Other formats

Comma delimited format used in spreadsheet applications
http://www.bom.gov.au/fwo/IDV60701/IDV60701.94953.axf

JavaScript Object Notation format (JSON) in row-major order
http://www.bom.gov.au/fwo/IDV60701/IDV60701.94953.json

Data quality

Most of these data are generated automatically and are frequently updated. Quality checks on data are not normally performed. It is possible for incorrect values to appear. Refer to information at About Latest Weather Observations and please check the disclaimer before using these data.